Hackney, United Kingdom
Current Conditions -  °F | °C
As of 9:50 PM on Saturday 22 Nov 2014 (Local Time) from EGLC Reporting Station
Haze Haze  
Wind Chill: 57°   Ceiling: 600
Heat Index: 57°   Visibility: 3mi
Dew Point: 55°   Wind: 3mph
Humidity: 94%   Direction: 160°SSE
Pressure: 29.97"   Gusts: NA
Location:  51.55°N, 0.06°W
Report Text: EGLC 222150Z AUTO 16003KT 4900 BR BKN006/// BKN007/// 14/13 Q1015
Loading
Personal Weather Stations






























Interactive Weather Map New forecast layout! Learn more

10-Day Weather Forecast

Advertisements
Track Severe Weather on mobile